createdAt,value
2022-11-10T00:01:10.524Z,10.90
2022-11-10T00:03:38.799Z,11.00
2022-11-10T00:06:07.197Z,11.00
2022-11-10T00:11:06.420Z,11.00
2022-11-10T00:13:35.569Z,11.10
2022-11-10T00:16:22.856Z,11.20
2022-11-10T00:21:18.187Z,11.40
2022-11-10T00:23:47.744Z,11.40
2022-11-10T00:26:20.021Z,11.30
2022-11-10T00:28:46.854Z,11.30
2022-11-10T00:31:13.765Z,11.30
2022-11-10T00:33:42.709Z,11.30
2022-11-10T00:36:09.713Z,11.30
2022-11-10T00:41:03.635Z,11.20
2022-11-10T00:43:31.197Z,11.10
2022-11-10T00:45:58.252Z,11.00
2022-11-10T00:48:24.996Z,10.80
2022-11-10T00:50:51.713Z,10.90
2022-11-10T00:53:18.832Z,10.80
2022-11-10T00:55:45.815Z,10.80
2022-11-10T01:00:39.651Z,10.70
2022-11-10T01:03:06.494Z,10.70
2022-11-10T01:05:37.594Z,10.70
2022-11-10T01:08:05.018Z,10.60
2022-11-10T01:15:27.851Z,10.60
2022-11-10T01:17:56.116Z,10.60
2022-11-10T01:25:17.368Z,10.50
2022-11-10T01:30:11.608Z,10.40
2022-11-10T01:35:06.003Z,10.30
2022-11-10T01:40:00.075Z,10.30
2022-11-10T01:42:29.071Z,10.20
2022-11-10T01:45:34.245Z,10.20
2022-11-10T01:48:04.708Z,10.20
2022-11-10T01:50:36.696Z,10.20
2022-11-10T01:53:07.701Z,10.20
2022-11-10T01:55:37.444Z,10.10
2022-11-10T01:58:04.631Z,10.10
2022-11-10T02:03:05.914Z,10.10
2022-11-10T02:05:32.817Z,10.10
2022-11-10T02:10:26.914Z,10.10
2022-11-10T02:15:20.858Z,10.00
2022-11-10T02:17:48.655Z,9.90
2022-11-10T02:20:19.437Z,9.90
2022-11-10T02:25:29.755Z,9.80
2022-11-10T02:30:27.554Z,9.70
2022-11-10T02:35:21.629Z,9.70
2022-11-10T02:40:15.501Z,9.60
2022-11-10T02:42:42.165Z,9.60
2022-11-10T02:45:09.129Z,9.50
2022-11-10T02:50:02.857Z,9.40
2022-11-10T02:59:50.803Z,9.50
2022-11-10T03:04:44.610Z,9.70
2022-11-10T03:07:11.446Z,9.70
2022-11-10T03:12:05.309Z,9.70
2022-11-10T03:14:31.999Z,9.60
2022-11-10T03:16:58.673Z,9.60
2022-11-10T03:19:25.333Z,9.60
2022-11-10T03:24:19.182Z,9.60
2022-11-10T03:36:34.255Z,9.40
2022-11-10T03:39:01.009Z,9.40
2022-11-10T03:41:27.667Z,9.40
2022-11-10T03:43:54.359Z,9.30
2022-11-10T03:51:21.346Z,9.20
2022-11-10T03:58:42.352Z,9.10
2022-11-10T04:01:09.062Z,9.10
2022-11-10T04:03:35.721Z,9.10
2022-11-10T04:11:48.047Z,8.90
2022-11-10T04:17:02.252Z,8.80
2022-11-10T04:19:29.324Z,8.80
2022-11-10T04:21:56.710Z,8.70
2022-11-10T04:24:23.440Z,8.70
2022-11-10T04:26:50.381Z,8.70
2022-11-10T04:29:19.129Z,8.60
2022-11-10T04:31:45.980Z,8.60
2022-11-10T04:34:15.020Z,8.60
2022-11-10T04:36:43.602Z,8.70
2022-11-10T04:39:10.935Z,8.50
2022-11-10T04:44:05.346Z,8.50
2022-11-10T04:46:38.385Z,8.50
2022-11-10T04:49:06.467Z,8.50
2022-11-10T04:51:35.967Z,8.40
2022-11-10T04:54:03.646Z,8.50
2022-11-10T04:58:57.845Z,8.40
2022-11-10T05:01:27.429Z,8.40
2022-11-10T05:03:55.107Z,8.40
2022-11-10T05:11:16.754Z,8.30
2022-11-10T05:13:44.462Z,8.30
2022-11-10T05:16:12.046Z,8.30
2022-11-10T05:18:39.031Z,8.20
2022-11-10T05:21:05.881Z,8.20
2022-11-10T05:23:38.723Z,8.20
2022-11-10T05:26:16.594Z,8.20
2022-11-10T05:28:45.077Z,8.10
2022-11-10T05:31:12.770Z,8.10
2022-11-10T05:33:39.648Z,8.10
2022-11-10T05:36:07.565Z,8.00
2022-11-10T05:38:37.737Z,8.00
2022-11-10T05:41:08.677Z,8.00
2022-11-10T05:48:29.503Z,8.00
2022-11-10T05:50:56.212Z,8.00
2022-11-10T05:53:23.316Z,8.00
2022-11-10T05:55:50.222Z,7.90
2022-11-10T06:00:43.995Z,7.90
2022-11-10T06:03:17.378Z,7.90
2022-11-10T06:05:44.587Z,7.90
2022-11-10T06:08:11.730Z,7.90
2022-11-10T06:10:39.101Z,7.80
2022-11-10T06:13:06.076Z,7.90
2022-11-10T06:15:33.310Z,7.90
2022-11-10T06:18:00.221Z,7.90
2022-11-10T06:20:27.124Z,7.90
2022-11-10T06:23:02.401Z,7.90
2022-11-10T06:25:34.185Z,7.90
2022-11-10T06:30:30.205Z,7.80
2022-11-10T06:32:56.918Z,7.80
2022-11-10T06:38:09.070Z,7.90
2022-11-10T06:40:35.720Z,7.90
2022-11-10T06:45:29.837Z,8.00
2022-11-10T06:48:03.968Z,8.10
2022-11-10T06:52:59.312Z,8.30
2022-11-10T06:57:54.256Z,8.40
2022-11-10T07:00:21.497Z,8.40
2022-11-10T07:02:48.150Z,8.50
2022-11-10T07:07:42.259Z,8.60
2022-11-10T07:10:09.151Z,8.60
2022-11-10T07:15:03.046Z,8.70
2022-11-10T07:19:56.792Z,8.70
2022-11-10T07:24:51.584Z,8.80
2022-11-10T07:29:45.253Z,8.80
2022-11-10T07:32:11.979Z,8.80
2022-11-10T07:37:05.795Z,8.90
2022-11-10T07:41:59.636Z,8.90
2022-11-10T07:44:27.665Z,8.90
2022-11-10T07:46:54.417Z,8.90
2022-11-10T07:51:48.169Z,9.00
2022-11-10T07:54:15.326Z,9.00
2022-11-10T07:59:09.104Z,9.00
2022-11-10T08:04:03.085Z,9.10
2022-11-10T08:09:03.098Z,9.10
2022-11-10T08:28:39.564Z,9.80
2022-11-10T08:33:33.565Z,10.10
2022-11-10T08:36:01.685Z,10.20
2022-11-10T08:38:28.433Z,10.30
2022-11-10T08:40:57.290Z,10.50
2022-11-10T08:45:55.137Z,10.70
2022-11-10T08:50:51.398Z,10.90
2022-11-10T08:53:23.995Z,11.00
2022-11-10T08:55:53.131Z,11.00
2022-11-10T08:58:22.344Z,11.10
2022-11-10T09:00:49.105Z,11.10
2022-11-10T09:03:22.301Z,11.10
2022-11-10T09:05:55.106Z,11.20
2022-11-10T09:10:51.662Z,11.30
2022-11-10T09:18:19.991Z,11.60
2022-11-10T09:23:17.596Z,11.80
2022-11-10T09:25:49.917Z,11.90
2022-11-10T09:28:17.485Z,11.90
2022-11-10T09:30:47.496Z,12.00
2022-11-10T09:33:14.539Z,12.20
2022-11-10T09:38:09.156Z,12.40
2022-11-10T09:41:03.611Z,12.50
2022-11-10T09:44:05.192Z,12.50
2022-11-10T09:46:44.273Z,12.60
2022-11-10T09:49:29.702Z,12.60
2022-11-10T09:51:59.272Z,12.60
2022-11-10T09:54:47.038Z,12.70
2022-11-10T09:57:16.690Z,12.80
2022-11-10T09:59:44.311Z,12.90
2022-11-10T10:02:13.967Z,13.00
2022-11-10T10:05:14.362Z,13.00
2022-11-10T10:08:02.372Z,13.00
2022-11-10T10:10:44.966Z,13.20
2022-11-10T10:13:20.748Z,13.30
2022-11-10T10:16:17.827Z,13.40
2022-11-10T10:18:44.430Z,13.40
2022-11-10T10:21:35.998Z,13.40
2022-11-10T10:24:10.369Z,13.40
2022-11-10T10:26:51.495Z,13.40
2022-11-10T10:29:23.940Z,13.40
2022-11-10T10:31:52.788Z,13.50
2022-11-10T10:34:31.302Z,13.50
2022-11-10T10:36:58.047Z,13.60
2022-11-10T10:39:41.686Z,13.60
2022-11-10T10:42:22.541Z,13.70
2022-11-10T10:45:14.085Z,13.70
2022-11-10T10:47:41.189Z,13.80
2022-11-10T10:50:28.068Z,13.80
2022-11-10T10:53:16.605Z,13.80
2022-11-10T10:56:01.118Z,13.90
2022-11-10T10:58:37.142Z,14.00
2022-11-10T11:01:15.874Z,14.00
2022-11-10T11:06:16.776Z,14.10
2022-11-10T11:08:59.471Z,14.10
2022-11-10T11:11:38.266Z,14.10
2022-11-10T11:14:31.548Z,14.10
2022-11-10T11:17:04.218Z,14.10
2022-11-10T11:19:34.376Z,14.20
2022-11-10T11:22:06.920Z,14.20
2022-11-10T11:24:45.983Z,14.30
2022-11-10T11:27:28.081Z,14.30
2022-11-10T11:30:06.909Z,14.30
2022-11-10T11:33:03.478Z,14.30
2022-11-10T11:35:33.776Z,14.30
2022-11-10T11:38:06.541Z,14.20
2022-11-10T11:40:52.042Z,14.20
2022-11-10T11:43:39.775Z,14.30
2022-11-10T11:46:28.525Z,14.30
2022-11-10T11:49:02.889Z,14.30
2022-11-10T11:51:53.003Z,14.30
2022-11-10T11:54:37.920Z,14.40
2022-11-10T11:57:37.196Z,14.40
2022-11-10T12:00:14.398Z,14.40
2022-11-10T12:02:52.948Z,14.40
2022-11-10T12:05:43.979Z,14.40
2022-11-10T12:11:05.532Z,14.40
2022-11-10T12:13:58.464Z,14.40
2022-11-10T12:16:33.916Z,14.50
2022-11-10T12:19:12.848Z,14.50
2022-11-10T12:24:24.390Z,14.60
2022-11-10T12:27:01.756Z,14.50
2022-11-10T12:29:42.079Z,14.60
2022-11-10T12:32:34.622Z,14.60
2022-11-10T12:35:11.178Z,14.60
2022-11-10T12:37:44.396Z,14.60
2022-11-10T12:40:30.295Z,14.60
2022-11-10T12:43:02.179Z,14.70
2022-11-10T12:45:48.691Z,14.80
2022-11-10T12:48:17.097Z,14.90
2022-11-10T12:51:44.904Z,14.90
2022-11-10T12:54:16.792Z,14.90
2022-11-10T12:57:24.046Z,15.00
2022-11-10T13:02:47.007Z,15.00
2022-11-10T13:05:28.749Z,15.00
2022-11-10T13:08:12.074Z,15.00
2022-11-10T13:10:53.778Z,15.00
2022-11-10T13:13:21.150Z,15.10
2022-11-10T13:15:53.724Z,15.10
2022-11-10T13:18:32.449Z,15.10
2022-11-10T13:20:59.908Z,15.10
2022-11-10T13:23:31.505Z,15.10
2022-11-10T13:26:09.232Z,15.10
2022-11-10T13:28:48.045Z,15.10
2022-11-10T13:31:38.968Z,15.10
2022-11-10T13:34:32.305Z,15.10
2022-11-10T13:36:59.504Z,15.10
2022-11-10T13:39:27.510Z,15.10
2022-11-10T13:42:00.703Z,15.10
2022-11-10T13:44:47.576Z,15.10
2022-11-10T13:47:17.252Z,15.10
2022-11-10T13:50:28.183Z,15.10
2022-11-10T13:53:00.962Z,15.20
2022-11-10T13:55:59.982Z,15.20
2022-11-10T13:58:33.060Z,15.10
2022-11-10T14:01:17.881Z,15.10
2022-11-10T14:03:51.398Z,15.10
2022-11-10T14:06:40.430Z,15.10
2022-11-10T14:09:34.285Z,15.10
2022-11-10T14:12:15.165Z,15.00
2022-11-10T14:14:47.482Z,15.00
2022-11-10T14:17:28.350Z,15.00
2022-11-10T14:19:55.182Z,14.90
2022-11-10T14:22:33.200Z,14.80
2022-11-10T14:25:20.684Z,14.80
2022-11-10T14:30:24.747Z,14.70
2022-11-10T14:33:09.085Z,14.70
2022-11-10T14:35:52.029Z,14.70
2022-11-10T14:38:21.125Z,14.70
2022-11-10T14:43:44.914Z,14.60
2022-11-10T14:46:14.959Z,14.60
2022-11-10T14:51:19.067Z,14.50
2022-11-10T14:53:57.002Z,14.50
2022-11-10T14:56:31.071Z,14.40
2022-11-10T14:59:01.275Z,14.40
2022-11-10T15:01:34.647Z,14.30
2022-11-10T15:06:30.711Z,14.10
2022-11-10T15:11:37.996Z,14.00
2022-11-10T15:16:32.772Z,13.80
2022-11-10T15:19:24.379Z,13.80
2022-11-10T15:24:19.046Z,13.60
2022-11-10T15:26:45.811Z,13.50
2022-11-10T15:29:21.602Z,13.50
2022-11-10T15:31:48.788Z,13.50
2022-11-10T15:34:49.299Z,13.40
2022-11-10T15:37:29.979Z,13.30
2022-11-10T15:40:28.397Z,13.20
2022-11-10T15:43:13.692Z,13.20
2022-11-10T15:45:42.159Z,13.10
2022-11-10T15:48:16.873Z,13.10
2022-11-10T15:50:49.247Z,13.00
2022-11-10T15:53:25.777Z,12.90
2022-11-10T15:58:21.884Z,12.90
2022-11-10T16:00:49.637Z,12.80
2022-11-10T16:03:22.477Z,12.80
2022-11-10T16:08:18.897Z,12.80
2022-11-10T16:10:48.110Z,12.80
2022-11-10T16:13:18.972Z,12.70
2022-11-10T16:18:19.855Z,12.60
2022-11-10T16:25:42.514Z,12.60
2022-11-10T16:28:20.724Z,12.60
2022-11-10T16:33:16.483Z,12.50
2022-11-10T16:35:43.689Z,12.40
2022-11-10T16:38:19.605Z,12.40
2022-11-10T16:40:55.087Z,12.30
2022-11-10T16:45:51.090Z,12.30
2022-11-10T16:48:30.473Z,12.30
2022-11-10T16:50:59.237Z,12.30
2022-11-10T16:53:28.918Z,12.30
2022-11-10T16:58:25.974Z,12.30
2022-11-10T17:00:55.357Z,12.20
2022-11-10T17:03:31.333Z,12.20
2022-11-10T17:05:58.699Z,12.10
2022-11-10T17:08:28.448Z,12.10
2022-11-10T17:10:58.301Z,12.10
2022-11-10T17:13:25.679Z,12.00
2022-11-10T17:15:57.672Z,12.10
2022-11-10T17:18:24.983Z,12.00
2022-11-10T17:23:24.355Z,11.90
2022-11-10T17:28:19.015Z,11.80
2022-11-10T17:30:46.340Z,11.80
2022-11-10T17:33:13.173Z,11.70
2022-11-10T17:38:14.108Z,11.60
2022-11-10T17:40:42.801Z,11.50
2022-11-10T17:43:12.160Z,11.40
2022-11-10T17:50:35.908Z,11.40
2022-11-10T17:53:08.888Z,11.30
2022-11-10T17:55:36.864Z,11.30
2022-11-10T17:58:03.618Z,11.30
2022-11-10T18:05:24.528Z,11.20
2022-11-10T18:10:19.643Z,11.20
2022-11-10T18:15:15.728Z,11.20
2022-11-10T18:17:42.774Z,11.20
2022-11-10T18:20:11.485Z,11.20
2022-11-10T18:22:38.582Z,11.20
2022-11-10T18:32:27.373Z,11.30
2022-11-10T18:37:21.251Z,11.20
2022-11-10T18:47:12.018Z,11.20
2022-11-10T18:52:05.835Z,11.10
2022-11-10T18:54:32.540Z,11.10
2022-11-10T19:09:15.203Z,10.80
2022-11-10T19:14:10.398Z,10.70
2022-11-10T19:21:31.298Z,10.40
2022-11-10T19:24:01.533Z,10.40
2022-11-10T19:31:24.249Z,10.20
2022-11-10T19:33:54.064Z,10.10
2022-11-10T19:36:23.289Z,10.00
2022-11-10T19:41:21.506Z,10.00
2022-11-10T19:46:17.973Z,9.90
2022-11-10T19:48:45.037Z,9.90
2022-11-10T19:51:14.483Z,9.90
2022-11-10T19:53:42.191Z,9.80
2022-11-10T19:56:14.593Z,9.80
2022-11-10T19:58:42.397Z,9.70
2022-11-10T20:01:11.005Z,9.70
2022-11-10T20:03:39.412Z,9.60
2022-11-10T20:06:09.756Z,9.60
2022-11-10T20:08:37.491Z,9.60
2022-11-10T20:18:25.648Z,9.60
2022-11-10T20:23:19.725Z,9.60
2022-11-10T20:28:14.304Z,9.60
2022-11-10T20:30:44.344Z,9.60
2022-11-10T20:33:11.548Z,9.60
2022-11-10T20:35:43.373Z,9.60
2022-11-10T20:38:11.141Z,9.60
2022-11-10T20:40:44.392Z,9.60
2022-11-10T20:43:12.479Z,9.60
2022-11-10T20:48:06.334Z,9.60
2022-11-10T20:53:00.084Z,9.60
2022-11-10T21:00:44.038Z,9.50
2022-11-10T21:03:10.703Z,9.50
2022-11-10T21:05:37.353Z,9.40
2022-11-10T21:08:04.171Z,9.40
2022-11-10T21:15:25.054Z,9.30
2022-11-10T21:17:51.689Z,9.20
2022-11-10T21:20:18.399Z,9.20
2022-11-10T21:25:13.509Z,9.10
2022-11-10T21:27:40.150Z,9.00
2022-11-10T21:30:11.455Z,9.00
2022-11-10T21:32:40.778Z,9.00
2022-11-10T21:35:07.972Z,9.00
2022-11-10T21:37:34.625Z,8.90
2022-11-10T21:45:02.022Z,8.90
2022-11-10T21:47:28.818Z,8.80
2022-11-10T21:49:55.461Z,8.80
2022-11-10T21:59:43.317Z,8.70
2022-11-10T22:02:10.617Z,8.70
2022-11-10T22:04:37.255Z,8.70
2022-11-10T22:10:12.148Z,8.70
2022-11-10T22:18:35.299Z,8.70
2022-11-10T22:21:06.105Z,8.60
2022-11-10T22:23:51.789Z,8.70
2022-11-10T22:26:18.914Z,8.60
2022-11-10T22:28:46.518Z,8.70
2022-11-10T22:31:13.261Z,8.60
2022-11-10T22:33:41.715Z,8.60
2022-11-10T22:36:12.409Z,8.60
2022-11-10T22:38:41.172Z,8.60
2022-11-10T22:41:32.114Z,8.70
2022-11-10T22:44:04.932Z,8.70
2022-11-10T22:46:39.942Z,8.70
2022-11-10T22:49:08.736Z,8.70
2022-11-10T22:51:37.443Z,8.60
2022-11-10T22:54:05.546Z,8.70
2022-11-10T22:56:33.453Z,8.70
2022-11-10T22:59:00.564Z,8.70
2022-11-10T23:03:57.668Z,8.60
2022-11-10T23:06:24.859Z,8.60
2022-11-10T23:08:51.654Z,8.50
2022-11-10T23:11:21.042Z,8.50
2022-11-10T23:16:19.226Z,8.50
2022-11-10T23:18:47.227Z,8.50
2022-11-10T23:21:15.919Z,8.50
2022-11-10T23:23:43.240Z,8.50
2022-11-10T23:26:21.580Z,8.50
2022-11-10T23:28:48.553Z,8.50
2022-11-10T23:31:20.827Z,8.40
2022-11-10T23:33:49.652Z,8.40
2022-11-10T23:36:18.491Z,8.40
2022-11-10T23:38:45.731Z,8.40
2022-11-10T23:41:15.226Z,8.40
2022-11-10T23:43:43.283Z,8.40
2022-11-10T23:46:11.157Z,8.40
2022-11-10T23:48:38.509Z,8.30
2022-11-10T23:51:07.101Z,8.40
2022-11-10T23:53:33.788Z,8.40
2022-11-10T23:56:02.954Z,8.30
